sensor_id;sensor_type;location;lat;lon;timestamp;pressure;altitude;pressure_sealevel;temperature;humidity
23659;BME280;12006;42.666;23.326;2023-05-02T00:02:07;56206.44;;;-138.99;100.00
23659;BME280;12006;42.666;23.326;2023-05-02T00:05:31;56206.44;;;-138.99;100.00
23659;BME280;12006;42.666;23.326;2023-05-02T00:08:55;56206.44;;;-138.99;100.00
23659;BME280;12006;42.666;23.326;2023-05-02T00:12:19;56206.44;;;-138.99;100.00
23659;BME280;12006;42.666;23.326;2023-05-02T00:15:43;56206.44;;;-138.99;100.00
23659;BME280;12006;42.666;23.326;2023-05-02T00:19:07;56206.44;;;-138.99;100.00
23659;BME280;12006;42.666;23.326;2023-05-02T00:22:31;56206.44;;;-138.99;100.00
23659;BME280;12006;42.666;23.326;2023-05-02T00:25:55;56206.44;;;-138.99;100.00
23659;BME280;12006;42.666;23.326;2023-05-02T00:29:19;56206.44;;;-138.99;100.00
23659;BME280;12006;42.666;23.326;2023-05-02T00:32:43;56206.44;;;-138.99;100.00
23659;BME280;12006;42.666;23.326;2023-05-02T00:36:14;56206.44;;;-138.99;100.00
23659;BME280;12006;42.666;23.326;2023-05-02T00:39:38;56206.44;;;-138.99;100.00
23659;BME280;12006;42.666;23.326;2023-05-02T00:43:02;56206.44;;;-138.99;100.00
23659;BME280;12006;42.666;23.326;2023-05-02T00:46:26;56206.44;;;-138.99;100.00
23659;BME280;12006;42.666;23.326;2023-05-02T00:49:50;56206.44;;;-138.99;100.00
23659;BME280;12006;42.666;23.326;2023-05-02T00:53:14;56206.44;;;-138.99;100.00
23659;BME280;12006;42.666;23.326;2023-05-02T00:56:38;56206.44;;;-138.99;100.00
23659;BME280;12006;42.666;23.326;2023-05-02T01:00:03;56206.44;;;-138.99;100.00
23659;BME280;12006;42.666;23.326;2023-05-02T01:11:23;56206.44;;;-138.99;100.00
23659;BME280;12006;42.666;23.326;2023-05-02T01:14:52;56206.44;;;-138.99;100.00
23659;BME280;12006;42.666;23.326;2023-05-02T01:18:22;56206.44;;;-138.99;100.00
23659;BME280;12006;42.666;23.326;2023-05-02T01:21:50;56206.44;;;-138.99;100.00
23659;BME280;12006;42.666;23.326;2023-05-02T01:25:40;56206.44;;;-138.99;100.00
23659;BME280;12006;42.666;23.326;2023-05-02T01:29:24;56206.44;;;-138.99;100.00
23659;BME280;12006;42.666;23.326;2023-05-02T01:32:51;56206.44;;;-138.99;100.00
23659;BME280;12006;42.666;23.326;2023-05-02T01:36:17;56206.44;;;-138.99;100.00
23659;BME280;12006;42.666;23.326;2023-05-02T01:39:42;56206.44;;;-138.99;100.00
23659;BME280;12006;42.666;23.326;2023-05-02T01:43:08;56206.44;;;-138.99;100.00
23659;BME280;12006;42.666;23.326;2023-05-02T01:46:36;56206.44;;;-138.99;100.00
23659;BME280;12006;42.666;23.326;2023-05-02T01:50:04;56206.44;;;-138.99;100.00
23659;BME280;12006;42.666;23.326;2023-05-02T01:53:30;56206.44;;;-138.99;100.00
23659;BME280;12006;42.666;23.326;2023-05-02T01:56:56;56206.44;;;-138.99;100.00
23659;BME280;12006;42.666;23.326;2023-05-02T02:00:21;56206.44;;;-138.99;100.00
23659;BME280;12006;42.666;23.326;2023-05-02T02:03:48;56206.44;;;-138.99;100.00
23659;BME280;12006;42.666;23.326;2023-05-02T02:07:13;56206.44;;;-138.99;100.00
23659;BME280;12006;42.666;23.326;2023-05-02T02:10:42;56206.44;;;-138.99;100.00
23659;BME280;12006;42.666;23.326;2023-05-02T02:14:35;56206.44;;;-138.99;100.00
23659;BME280;12006;42.666;23.326;2023-05-02T02:18:09;56206.44;;;-138.99;100.00
23659;BME280;12006;42.666;23.326;2023-05-02T02:21:35;56206.44;;;-138.99;100.00
23659;BME280;12006;42.666;23.326;2023-05-02T02:25:06;56206.44;;;-138.99;100.00
23659;BME280;12006;42.666;23.326;2023-05-02T02:28:32;56206.44;;;-138.99;100.00
23659;BME280;12006;42.666;23.326;2023-05-02T02:31:56;56206.44;;;-138.99;100.00
23659;BME280;12006;42.666;23.326;2023-05-02T02:35:20;56206.44;;;-138.99;100.00
23659;BME280;12006;42.666;23.326;2023-05-02T02:42:51;56206.44;;;-138.99;100.00
23659;BME280;12006;42.666;23.326;2023-05-02T02:46:40;56206.44;;;-138.99;100.00
23659;BME280;12006;42.666;23.326;2023-05-02T02:50:33;56206.44;;;-138.99;100.00
23659;BME280;12006;42.666;23.326;2023-05-02T02:54:12;56206.44;;;-138.99;100.00
23659;BME280;12006;42.666;23.326;2023-05-02T02:57:40;56206.44;;;-138.99;100.00
23659;BME280;12006;42.666;23.326;2023-05-02T03:01:10;56206.44;;;-138.99;100.00
23659;BME280;12006;42.666;23.326;2023-05-02T03:04:39;56206.44;;;-138.99;100.00
23659;BME280;12006;42.666;23.326;2023-05-02T03:08:04;56206.44;;;-138.99;100.00
23659;BME280;12006;42.666;23.326;2023-05-02T03:11:28;56206.44;;;-138.99;100.00
23659;BME280;12006;42.666;23.326;2023-05-02T03:14:53;56206.44;;;-138.99;100.00
23659;BME280;12006;42.666;23.326;2023-05-02T03:18:22;56206.44;;;-138.99;100.00
23659;BME280;12006;42.666;23.326;2023-05-02T03:21:46;56206.44;;;-138.99;100.00
23659;BME280;12006;42.666;23.326;2023-05-02T03:25:10;56206.44;;;-138.99;100.00
23659;BME280;12006;42.666;23.326;2023-05-02T03:28:34;56206.44;;;-138.99;100.00
23659;BME280;12006;42.666;23.326;2023-05-02T03:31:58;56206.44;;;-138.99;100.00
23659;BME280;12006;42.666;23.326;2023-05-02T03:35:22;56206.44;;;-138.99;100.00
23659;BME280;12006;42.666;23.326;2023-05-02T03:38:46;56206.44;;;-138.99;100.00
23659;BME280;12006;42.666;23.326;2023-05-02T03:42:10;56206.44;;;-138.99;100.00
23659;BME280;12006;42.666;23.326;2023-05-02T03:45:34;56206.44;;;-138.99;100.00
23659;BME280;12006;42.666;23.326;2023-05-02T03:48:58;56206.44;;;-138.99;100.00
23659;BME280;12006;42.666;23.326;2023-05-02T03:52:22;56206.44;;;-138.99;100.00
23659;BME280;12006;42.666;23.326;2023-05-02T03:55:47;56206.44;;;-138.99;100.00
23659;BME280;12006;42.666;23.326;2023-05-02T03:59:11;56206.44;;;-138.99;100.00
23659;BME280;12006;42.666;23.326;2023-05-02T04:02:35;56206.44;;;-138.99;100.00
23659;BME280;12006;42.666;23.326;2023-05-02T04:05:59;56206.44;;;-138.99;100.00
23659;BME280;12006;42.666;23.326;2023-05-02T04:09:23;56206.44;;;-138.99;100.00
23659;BME280;12006;42.666;23.326;2023-05-02T04:12:36;56206.44;;;-138.99;100.00
23659;BME280;12006;42.666;23.326;2023-05-02T04:16:00;56206.44;;;-138.99;100.00
23659;BME280;12006;42.666;23.326;2023-05-02T04:19:24;56206.44;;;-138.99;100.00
23659;BME280;12006;42.666;23.326;2023-05-02T04:22:48;56206.44;;;-138.99;100.00
23659;BME280;12006;42.666;23.326;2023-05-02T04:26:13;56206.44;;;-138.99;100.00
23659;BME280;12006;42.666;23.326;2023-05-02T04:29:37;56206.44;;;-138.99;100.00
23659;BME280;12006;42.666;23.326;2023-05-02T04:33:01;56206.44;;;-138.99;100.00
23659;BME280;12006;42.666;23.326;2023-05-02T04:36:25;56206.44;;;-138.99;100.00
23659;BME280;12006;42.666;23.326;2023-05-02T04:39:50;56206.44;;;-138.99;100.00
23659;BME280;12006;42.666;23.326;2023-05-02T04:43:14;56206.44;;;-138.99;100.00
23659;BME280;12006;42.666;23.326;2023-05-02T04:46:38;56206.44;;;-138.99;100.00
23659;BME280;12006;42.666;23.326;2023-05-02T04:50:02;56206.44;;;-138.99;100.00
23659;BME280;12006;42.666;23.326;2023-05-02T04:53:27;56206.44;;;-138.99;100.00
23659;BME280;12006;42.666;23.326;2023-05-02T04:56:51;56206.44;;;-138.99;100.00
23659;BME280;12006;42.666;23.326;2023-05-02T05:00:15;56206.44;;;-138.99;100.00
23659;BME280;12006;42.666;23.326;2023-05-02T05:03:39;56206.44;;;-138.99;100.00
23659;BME280;12006;42.666;23.326;2023-05-02T05:07:03;56206.44;;;-138.99;100.00
23659;BME280;12006;42.666;23.326;2023-05-02T05:10:27;56206.44;;;-138.99;100.00
23659;BME280;12006;42.666;23.326;2023-05-02T05:13:51;56206.44;;;-138.99;100.00
23659;BME280;12006;42.666;23.326;2023-05-02T05:17:15;56206.44;;;-138.99;100.00
23659;BME280;12006;42.666;23.326;2023-05-02T05:20:39;56206.44;;;-138.99;100.00
23659;BME280;12006;42.666;23.326;2023-05-02T05:24:03;56206.44;;;-138.99;100.00
23659;BME280;12006;42.666;23.326;2023-05-02T05:27:27;56206.44;;;-138.99;100.00
23659;BME280;12006;42.666;23.326;2023-05-02T05:30:51;56206.44;;;-138.99;100.00
23659;BME280;12006;42.666;23.326;2023-05-02T05:34:15;56206.44;;;-138.99;100.00
23659;BME280;12006;42.666;23.326;2023-05-02T05:37:39;56206.44;;;-138.99;100.00
23659;BME280;12006;42.666;23.326;2023-05-02T05:41:04;56206.44;;;-138.99;100.00
23659;BME280;12006;42.666;23.326;2023-05-02T05:44:30;56206.44;;;-138.99;100.00
23659;BME280;12006;42.666;23.326;2023-05-02T05:47:54;56206.44;;;-138.99;100.00
23659;BME280;12006;42.666;23.326;2023-05-02T05:51:18;56206.44;;;-138.99;100.00
23659;BME280;12006;42.666;23.326;2023-05-02T05:54:42;56206.44;;;-138.99;100.00
23659;BME280;12006;42.666;23.326;2023-05-02T05:58:06;56206.44;;;-138.99;100.00
23659;BME280;12006;42.666;23.326;2023-05-02T06:01:13;73923.38;;;-138.99;100.00
23659;BME280;12006;42.666;23.326;2023-05-02T06:04:38;56206.44;;;-138.99;100.00
23659;BME280;12006;42.666;23.326;2023-05-02T06:08:01;56206.44;;;-138.99;100.00
23659;BME280;12006;42.666;23.326;2023-05-02T06:11:25;56206.44;;;-138.99;100.00
23659;BME280;12006;42.666;23.326;2023-05-02T06:14:50;56206.44;;;-138.99;100.00
23659;BME280;12006;42.666;23.326;2023-05-02T06:18:15;56206.44;;;-138.99;100.00
23659;BME280;12006;42.666;23.326;2023-05-02T06:21:39;56206.44;;;-138.99;100.00
23659;BME280;12006;42.666;23.326;2023-05-02T06:25:03;56206.44;;;-138.99;100.00
23659;BME280;12006;42.666;23.326;2023-05-02T06:28:28;56206.44;;;-138.99;100.00
23659;BME280;12006;42.666;23.326;2023-05-02T06:31:56;56206.44;;;-138.99;100.00
23659;BME280;12006;42.666;23.326;2023-05-02T06:35:19;56206.44;;;-138.99;100.00
23659;BME280;12006;42.666;23.326;2023-05-02T06:38:44;56206.44;;;-138.99;100.00
23659;BME280;12006;42.666;23.326;2023-05-02T06:42:11;56206.44;;;-138.99;100.00
23659;BME280;12006;42.666;23.326;2023-05-02T06:45:31;56206.44;;;-138.99;100.00
23659;BME280;12006;42.666;23.326;2023-05-02T06:48:41;56206.44;;;-138.99;100.00
23659;BME280;12006;42.666;23.326;2023-05-02T06:51:53;56206.44;;;-138.99;100.00
23659;BME280;12006;42.666;23.326;2023-05-02T06:55:16;56206.44;;;-138.99;100.00
23659;BME280;12006;42.666;23.326;2023-05-02T06:58:40;56206.44;;;-138.99;100.00
23659;BME280;12006;42.666;23.326;2023-05-02T07:02:04;56206.44;;;-138.99;100.00
23659;BME280;12006;42.666;23.326;2023-05-02T07:05:24;56206.44;;;-138.99;100.00
23659;BME280;12006;42.666;23.326;2023-05-02T07:08:48;56206.44;;;-138.99;100.00
23659;BME280;12006;42.666;23.326;2023-05-02T07:12:12;56206.44;;;-138.99;100.00
23659;BME280;12006;42.666;23.326;2023-05-02T07:15:33;56206.44;;;-138.99;100.00
23659;BME280;12006;42.666;23.326;2023-05-02T07:18:57;56206.44;;;-138.99;100.00
23659;BME280;12006;42.666;23.326;2023-05-02T07:22:05;56206.44;;;-138.99;100.00
23659;BME280;12006;42.666;23.326;2023-05-02T07:25:30;56206.44;;;-138.99;100.00
23659;BME280;12006;42.666;23.326;2023-05-02T07:28:54;56206.44;;;-138.99;100.00
23659;BME280;12006;42.666;23.326;2023-05-02T07:32:18;56206.44;;;-138.99;100.00
23659;BME280;12006;42.666;23.326;2023-05-02T07:35:44;56206.44;;;-138.99;100.00
23659;BME280;12006;42.666;23.326;2023-05-02T07:38:47;56206.44;;;-138.99;100.00
23659;BME280;12006;42.666;23.326;2023-05-02T07:42:11;56206.44;;;-138.99;100.00
23659;BME280;12006;42.666;23.326;2023-05-02T07:45:33;56206.44;;;-138.99;100.00
23659;BME280;12006;42.666;23.326;2023-05-02T07:48:58;56206.44;;;-138.99;100.00
23659;BME280;12006;42.666;23.326;2023-05-02T07:52:22;56206.44;;;-138.99;100.00
23659;BME280;12006;42.666;23.326;2023-05-02T07:55:46;56206.44;;;-138.99;100.00
23659;BME280;12006;42.666;23.326;2023-05-02T07:59:10;56206.44;;;-138.99;100.00
23659;BME280;12006;42.666;23.326;2023-05-02T08:02:34;56206.44;;;-138.99;100.00
23659;BME280;12006;42.666;23.326;2023-05-02T08:05:59;56206.44;;;-138.99;100.00
23659;BME280;12006;42.666;23.326;2023-05-02T08:09:24;56206.44;;;-138.99;100.00
23659;BME280;12006;42.666;23.326;2023-05-02T08:12:48;56206.44;;;-138.99;100.00
23659;BME280;12006;42.666;23.326;2023-05-02T08:16:13;56206.44;;;-138.99;100.00
23659;BME280;12006;42.666;23.326;2023-05-02T08:19:37;56206.44;;;-138.99;100.00
23659;BME280;12006;42.666;23.326;2023-05-02T08:23:01;56206.44;;;-138.99;100.00
23659;BME280;12006;42.666;23.326;2023-05-02T08:26:25;56206.44;;;-138.99;100.00
23659;BME280;12006;42.666;23.326;2023-05-02T08:29:49;56206.44;;;-138.99;100.00
23659;BME280;12006;42.666;23.326;2023-05-02T08:33:13;56206.44;;;-138.99;100.00
23659;BME280;12006;42.666;23.326;2023-05-02T08:36:37;56206.44;;;-138.99;100.00
23659;BME280;12006;42.666;23.326;2023-05-02T08:40:01;56206.44;;;-138.99;100.00
23659;BME280;12006;42.666;23.326;2023-05-02T08:43:26;56206.44;;;-138.99;100.00
23659;BME280;12006;42.666;23.326;2023-05-02T08:46:51;56206.44;;;-138.99;100.00
23659;BME280;12006;42.666;23.326;2023-05-02T08:50:16;56206.44;;;-138.99;100.00
23659;BME280;12006;42.666;23.326;2023-05-02T08:53:44;56206.44;;;-138.99;100.00
23659;BME280;12006;42.666;23.326;2023-05-02T08:57:08;56206.44;;;-138.99;100.00
23659;BME280;12006;42.666;23.326;2023-05-02T09:00:35;56206.44;;;-138.99;100.00
23659;BME280;12006;42.666;23.326;2023-05-02T09:04:01;56206.44;;;-138.99;100.00
23659;BME280;12006;42.666;23.326;2023-05-02T09:07:25;56206.44;;;-138.99;100.00
23659;BME280;12006;42.666;23.326;2023-05-02T09:10:50;56206.44;;;-138.99;100.00
23659;BME280;12006;42.666;23.326;2023-05-02T09:14:33;56206.44;;;-138.99;100.00
23659;BME280;12006;42.666;23.326;2023-05-02T09:17:57;56206.44;;;-138.99;100.00
23659;BME280;12006;42.666;23.326;2023-05-02T09:21:22;56206.44;;;-138.99;100.00
23659;BME280;12006;42.666;23.326;2023-05-02T09:24:53;56206.44;;;-138.99;100.00
23659;BME280;12006;42.666;23.326;2023-05-02T09:28:16;56206.44;;;-138.99;100.00
23659;BME280;12006;42.666;23.326;2023-05-02T09:31:40;56206.44;;;-138.99;100.00
23659;BME280;12006;42.666;23.326;2023-05-02T09:35:10;56206.44;;;-138.99;100.00
23659;BME280;12006;42.666;23.326;2023-05-02T09:38:34;56206.44;;;-138.99;100.00
23659;BME280;12006;42.666;23.326;2023-05-02T09:41:58;56206.44;;;-138.99;100.00
23659;BME280;12006;42.666;23.326;2023-05-02T09:45:23;56206.44;;;-138.99;100.00
23659;BME280;12006;42.666;23.326;2023-05-02T09:48:53;56206.44;;;-138.99;100.00
23659;BME280;12006;42.666;23.326;2023-05-02T09:52:19;56206.44;;;-138.99;100.00
23659;BME280;12006;42.666;23.326;2023-05-02T09:55:46;56206.44;;;-138.99;100.00
23659;BME280;12006;42.666;23.326;2023-05-02T09:59:20;56206.44;;;-138.99;100.00
23659;BME280;12006;42.666;23.326;2023-05-02T10:02:50;56206.44;;;-138.99;100.00
23659;BME280;12006;42.666;23.326;2023-05-02T10:06:15;56206.44;;;-138.99;100.00
23659;BME280;12006;42.666;23.326;2023-05-02T10:09:43;56206.44;;;-138.99;100.00
23659;BME280;12006;42.666;23.326;2023-05-02T10:13:12;56206.44;;;-138.99;100.00
23659;BME280;12006;42.666;23.326;2023-05-02T10:16:51;56206.44;;;-138.99;100.00
23659;BME280;12006;42.666;23.326;2023-05-02T10:20:22;56206.44;;;-138.99;100.00
23659;BME280;12006;42.666;23.326;2023-05-02T10:23:49;56206.44;;;-138.99;100.00
23659;BME280;12006;42.666;23.326;2023-05-02T10:27:15;56206.44;;;-138.99;100.00
23659;BME280;12006;42.666;23.326;2023-05-02T10:30:39;56206.44;;;-138.99;100.00
23659;BME280;12006;42.666;23.326;2023-05-02T10:34:04;56206.44;;;-138.99;100.00
23659;BME280;12006;42.666;23.326;2023-05-02T10:37:30;56206.44;;;-138.99;100.00
23659;BME280;12006;42.666;23.326;2023-05-02T10:40:58;56206.44;;;-138.99;100.00
23659;BME280;12006;42.666;23.326;2023-05-02T10:51:41;56206.44;;;-138.99;100.00
23659;BME280;12006;42.666;23.326;2023-05-02T10:55:20;56206.44;;;-138.99;100.00
23659;BME280;12006;42.666;23.326;2023-05-02T11:10:30;56206.44;;;-138.99;100.00
23659;BME280;12006;42.666;23.326;2023-05-02T11:13:55;56206.44;;;-138.99;100.00
23659;BME280;12006;42.666;23.326;2023-05-02T11:17:19;56206.44;;;-138.99;100.00
23659;BME280;12006;42.666;23.326;2023-05-02T11:20:44;56206.44;;;-138.99;100.00
23659;BME280;12006;42.666;23.326;2023-05-02T11:31:56;56206.44;;;-138.99;100.00
23659;BME280;12006;42.666;23.326;2023-05-02T11:35:21;56206.44;;;-138.99;100.00
23659;BME280;12006;42.666;23.326;2023-05-02T11:38:59;56206.44;;;-138.99;100.00
23659;BME280;12006;42.666;23.326;2023-05-02T11:42:40;56206.44;;;-138.99;100.00
23659;BME280;12006;42.666;23.326;2023-05-02T11:46:05;56206.44;;;-138.99;100.00
23659;BME280;12006;42.666;23.326;2023-05-02T11:49:29;56206.44;;;-138.99;100.00
23659;BME280;12006;42.666;23.326;2023-05-02T11:52:56;56206.44;;;-138.99;100.00
23659;BME280;12006;42.666;23.326;2023-05-02T11:56:23;56206.44;;;-138.99;100.00
23659;BME280;12006;42.666;23.326;2023-05-02T11:59:48;56206.44;;;-138.99;100.00
23659;BME280;12006;42.666;23.326;2023-05-02T12:03:08;56206.44;;;-138.99;100.00
23659;BME280;12006;42.666;23.326;2023-05-02T12:06:53;56206.44;;;-138.99;100.00
23659;BME280;12006;42.666;23.326;2023-05-02T12:10:17;56206.44;;;-138.99;100.00
23659;BME280;12006;42.666;23.326;2023-05-02T12:12:44;56206.44;;;-138.99;100.00
23659;BME280;12006;42.666;23.326;2023-05-02T12:15:10;-24578.22;;;23.32;46.81
23659;BME280;12006;42.666;23.326;2023-05-02T12:18:03;-24578.22;;;23.32;46.81
23659;BME280;12006;42.666;23.326;2023-05-02T12:21:27;56206.44;;;-138.99;100.00
23659;BME280;12006;42.666;23.326;2023-05-02T12:24:49;56206.44;;;-138.99;100.00
23659;BME280;12006;42.666;23.326;2023-05-02T12:27:15;-24583.00;;;23.46;46.01
23659;BME280;12006;42.666;23.326;2023-05-02T12:29:42;-24565.81;;;22.96;45.84
23659;BME280;12006;42.666;23.326;2023-05-02T12:32:09;-24557.28;;;22.71;46.01
23659;BME280;12006;42.666;23.326;2023-05-02T12:34:35;-24570.06;;;23.09;46.28
23659;BME280;12006;42.666;23.326;2023-05-02T12:37:01;-24573.13;;;23.18;45.63
23659;BME280;12006;42.666;23.326;2023-05-02T12:40:36;56206.44;;;-138.99;100.00
23659;BME280;12006;42.666;23.326;2023-05-02T12:43:59;56206.44;;;-138.99;100.00
23659;BME280;12006;42.666;23.326;2023-05-02T12:47:06;56206.44;;;-138.99;100.00
23659;BME280;12006;42.666;23.326;2023-05-02T12:50:12;56206.44;;;-138.99;100.00
23659;BME280;12006;42.666;23.326;2023-05-02T12:53:45;56206.44;;;-138.99;100.00
23659;BME280;12006;42.666;23.326;2023-05-02T12:57:04;56206.44;;;-138.99;100.00
23659;BME280;12006;42.666;23.326;2023-05-02T13:00:30;56206.44;;;-138.99;100.00
23659;BME280;12006;42.666;23.326;2023-05-02T13:03:13;56206.44;;;-138.99;100.00
23659;BME280;12006;42.666;23.326;2023-05-02T13:06:31;56206.44;;;-138.99;100.00
23659;BME280;12006;42.666;23.326;2023-05-02T13:09:48;56206.44;;;-138.99;100.00
23659;BME280;12006;42.666;23.326;2023-05-02T13:13:12;56206.44;;;-138.99;100.00
23659;BME280;12006;42.666;23.326;2023-05-02T13:16:36;56206.44;;;-138.99;100.00
23659;BME280;12006;42.666;23.326;2023-05-02T13:20:00;56206.44;;;-138.99;100.00
23659;BME280;12006;42.666;23.326;2023-05-02T13:23:24;56206.44;;;-138.99;100.00
23659;BME280;12006;42.666;23.326;2023-05-02T13:26:48;56206.44;;;-138.99;100.00
23659;BME280;12006;42.666;23.326;2023-05-02T13:30:05;56206.44;;;-138.99;100.00
23659;BME280;12006;42.666;23.326;2023-05-02T13:33:29;56206.44;;;-138.99;100.00
23659;BME280;12006;42.666;23.326;2023-05-02T13:36:50;56206.44;;;-138.99;100.00
23659;BME280;12006;42.666;23.326;2023-05-02T13:40:13;56206.44;;;-138.99;100.00
23659;BME280;12006;42.666;23.326;2023-05-02T13:43:36;56206.44;;;-138.99;100.00
23659;BME280;12006;42.666;23.326;2023-05-02T13:46:57;56206.44;;;-138.99;100.00
23659;BME280;12006;42.666;23.326;2023-05-02T13:50:19;56206.44;;;-138.99;100.00
23659;BME280;12006;42.666;23.326;2023-05-02T13:53:36;56206.44;;;-138.99;100.00
23659;BME280;12006;42.666;23.326;2023-05-02T13:56:58;56206.44;;;-138.99;100.00
23659;BME280;12006;42.666;23.326;2023-05-02T14:00:14;56206.44;;;-138.99;100.00
23659;BME280;12006;42.666;23.326;2023-05-02T14:03:06;56206.44;;;-138.99;100.00
23659;BME280;12006;42.666;23.326;2023-05-02T14:05:46;56206.44;;;-138.99;100.00
23659;BME280;12006;42.666;23.326;2023-05-02T14:08:31;56206.44;;;-138.99;100.00
23659;BME280;12006;42.666;23.326;2023-05-02T14:11:01;56206.44;;;-138.99;100.00
23659;BME280;12006;42.666;23.326;2023-05-02T14:14:03;56206.44;;;-138.99;100.00
23659;BME280;12006;42.666;23.326;2023-05-02T14:17:14;56206.44;;;-138.99;100.00
23659;BME280;12006;42.666;23.326;2023-05-02T14:19:44;56206.44;;;-138.99;100.00
23659;BME280;12006;42.666;23.326;2023-05-02T14:22:33;56206.44;;;-138.99;100.00
23659;BME280;12006;42.666;23.326;2023-05-02T14:25:00;56206.44;;;-138.99;100.00
23659;BME280;12006;42.666;23.326;2023-05-02T14:27:25;56206.44;;;-138.99;100.00
23659;BME280;12006;42.666;23.326;2023-05-02T14:29:51;56206.44;;;-138.99;100.00
23659;BME280;12006;42.666;23.326;2023-05-02T14:32:46;56206.44;;;-138.99;100.00
23659;BME280;12006;42.666;23.326;2023-05-02T14:35:11;56206.44;;;-138.99;100.00
23659;BME280;12006;42.666;23.326;2023-05-02T14:37:38;56206.44;;;-138.99;100.00
23659;BME280;12006;42.666;23.326;2023-05-02T14:40:12;56206.44;;;-138.99;100.00
23659;BME280;12006;42.666;23.326;2023-05-02T14:43:22;56206.44;;;-138.99;100.00
23659;BME280;12006;42.666;23.326;2023-05-02T14:45:49;56206.44;;;-138.99;100.00
23659;BME280;12006;42.666;23.326;2023-05-02T14:48:35;56206.44;;;-138.99;100.00
23659;BME280;12006;42.666;23.326;2023-05-02T14:51:22;56206.44;;;-138.99;100.00
23659;BME280;12006;42.666;23.326;2023-05-02T14:54:41;56206.44;;;-138.99;100.00
23659;BME280;12006;42.666;23.326;2023-05-02T14:57:07;-24467.41;;;20.15;48.27
23659;BME280;12006;42.666;23.326;2023-05-02T14:59:33;-24466.22;;;20.12;48.28
23659;BME280;12006;42.666;23.326;2023-05-02T15:02:00;-24463.66;;;20.05;48.28
23659;BME280;12006;42.666;23.326;2023-05-02T15:04:25;-24465.72;;;20.10;48.40
23659;BME280;12006;42.666;23.326;2023-05-02T15:06:51;-24465.03;;;20.09;48.72
23659;BME280;12006;42.666;23.326;2023-05-02T15:09:18;-24464.50;;;20.07;48.18
23659;BME280;12006;42.666;23.326;2023-05-02T15:11:43;-24463.84;;;20.05;48.21
23659;BME280;12006;42.666;23.326;2023-05-02T15:14:09;-24462.97;;;20.03;48.36
23659;BME280;12006;42.666;23.326;2023-05-02T15:16:34;-24462.81;;;20.02;48.37
23659;BME280;12006;42.666;23.326;2023-05-02T15:19:01;-24460.06;;;19.94;47.77
23659;BME280;12006;42.666;23.326;2023-05-02T15:21:26;-24458.19;;;19.89;47.74
23659;BME280;12006;42.666;23.326;2023-05-02T15:23:52;-24133.69;;;19.85;47.83
23659;BME280;12006;42.666;23.326;2023-05-02T15:26:17;-24133.16;;;19.84;47.75
23659;BME280;12006;42.666;23.326;2023-05-02T15:28:43;-24458.69;;;19.90;48.92
23659;BME280;12006;42.666;23.326;2023-05-02T15:31:08;-24458.69;;;19.90;49.09
23659;BME280;12006;42.666;23.326;2023-05-02T15:33:34;-24459.41;;;19.92;48.49
23659;BME280;12006;42.666;23.326;2023-05-02T15:35:59;-24459.56;;;19.93;48.41
23659;BME280;12006;42.666;23.326;2023-05-02T15:38:25;-24460.75;;;19.96;48.31
23659;BME280;12006;42.666;23.326;2023-05-02T15:40:55;-24460.41;;;19.95;48.52
23659;BME280;12006;42.666;23.326;2023-05-02T15:43:21;-24134.00;;;19.86;47.20
23659;BME280;12006;42.666;23.326;2023-05-02T15:45:54;-24130.66;;;19.76;47.23
23659;BME280;12006;42.666;23.326;2023-05-02T15:48:20;-24128.13;;;19.69;46.59
23659;BME280;12006;42.666;23.326;2023-05-02T15:50:47;-24128.47;;;19.70;46.66
23659;BME280;12006;42.666;23.326;2023-05-02T15:53:13;-24124.94;;;19.59;47.13
23659;BME280;12006;42.666;23.326;2023-05-02T15:55:40;-24128.31;;;19.69;47.48
23659;BME280;12006;42.666;23.326;2023-05-02T15:58:08;-24125.94;;;19.62;47.38
23659;BME280;12006;42.666;23.326;2023-05-02T16:00:33;-24125.28;;;19.60;47.65
23659;BME280;12006;42.666;23.326;2023-05-02T16:02:58;-24124.59;;;19.58;47.51
23659;BME280;12006;42.666;23.326;2023-05-02T16:05:24;-23797.41;;;19.47;47.71
23659;BME280;12006;42.666;23.326;2023-05-02T16:07:49;-23795.44;;;19.41;47.60
23659;BME280;12006;42.666;23.326;2023-05-02T16:10:15;-23795.75;;;19.42;47.98
23659;BME280;12006;42.666;23.326;2023-05-02T16:12:40;-23792.97;;;19.33;47.98
23659;BME280;12006;42.666;23.326;2023-05-02T16:15:06;-23790.47;;;19.26;47.92
23659;BME280;12006;42.666;23.326;2023-05-02T16:17:32;-23789.66;;;19.23;48.24
23659;BME280;12006;42.666;23.326;2023-05-02T16:19:57;-23790.78;;;19.27;48.68
23659;BME280;12006;42.666;23.326;2023-05-02T16:22:23;-23788.31;;;19.19;48.31
23659;BME280;12006;42.666;23.326;2023-05-02T16:24:50;-23784.19;;;19.07;49.11
23659;BME280;12006;42.666;23.326;2023-05-02T16:27:15;-23787.31;;;19.16;49.61
23659;BME280;12006;42.666;23.326;2023-05-02T16:29:40;-23785.16;;;19.10;48.79
23659;BME280;12006;42.666;23.326;2023-05-02T16:32:06;-23782.84;;;19.03;49.70
23659;BME280;12006;42.666;23.326;2023-05-02T16:34:32;-23781.53;;;18.99;49.32
23659;BME280;12006;42.666;23.326;2023-05-02T16:36:58;-23457.31;;;18.95;49.17
23659;BME280;12006;42.666;23.326;2023-05-02T16:39:23;-23454.19;;;18.85;49.51
23659;BME280;12006;42.666;23.326;2023-05-02T16:41:49;-23452.72;;;18.81;49.16
23659;BME280;12006;42.666;23.326;2023-05-02T16:44:14;-23451.75;;;18.78;49.72
23659;BME280;12006;42.666;23.326;2023-05-02T16:46:40;-23452.25;;;18.80;49.84